createdAt,value
2023-04-18T00:00:50.634Z,30.03
2023-04-18T00:01:50.686Z,30.01
2023-04-18T00:02:50.783Z,30.01
2023-04-18T00:03:51.030Z,30.02
2023-04-18T00:04:50.816Z,30.02
2023-04-18T00:05:50.686Z,30.02
2023-04-18T00:06:50.724Z,30.03
2023-04-18T00:07:50.709Z,30.02
2023-04-18T00:08:50.707Z,30.01
2023-04-18T00:09:50.728Z,30.04
2023-04-18T00:10:50.726Z,30.01
2023-04-18T00:11:50.745Z,30.04
2023-04-18T00:12:50.734Z,30.03
2023-04-18T00:13:50.755Z,30.02
2023-04-18T00:14:50.751Z,30.03
2023-04-18T00:15:50.763Z,30.04
2023-04-18T00:16:50.813Z,30.03
2023-04-18T00:17:50.789Z,30.02
2023-04-18T00:18:50.789Z,30.03
2023-04-18T00:19:50.804Z,30.03
2023-04-18T00:20:50.790Z,30.00
2023-04-18T00:21:50.798Z,30.01
2023-04-18T00:22:50.821Z,30.01
2023-04-18T00:23:50.820Z,30.01
2023-04-18T00:24:50.815Z,30.00
2023-04-18T00:25:50.840Z,30.03
2023-04-18T00:26:50.821Z,30.01
2023-04-18T00:27:50.817Z,30.03
2023-04-18T00:28:50.826Z,30.02
2023-04-18T00:29:50.830Z,30.00
2023-04-18T00:30:50.913Z,30.00
2023-04-18T00:31:50.833Z,30.01
2023-04-18T00:32:50.929Z,30.02
2023-04-18T00:33:50.841Z,30.02
2023-04-18T00:34:50.848Z,30.01
2023-04-18T00:35:50.852Z,30.02
2023-04-18T00:36:50.850Z,30.03
2023-04-18T00:37:50.873Z,30.04
2023-04-18T00:38:50.861Z,30.02
2023-04-18T00:39:50.882Z,30.01
2023-04-18T00:40:50.860Z,30.01
2023-04-18T00:41:51.515Z,30.02
2023-04-18T00:42:50.893Z,30.00
2023-04-18T00:43:50.865Z,30.01
2023-04-18T00:44:50.878Z,30.02
2023-04-18T00:45:50.896Z,30.03
2023-04-18T00:46:50.863Z,30.01
2023-04-18T00:47:50.927Z,30.01
2023-04-18T00:48:50.874Z,30.02
2023-04-18T00:49:50.897Z,30.01
2023-04-18T00:50:50.882Z,30.02
2023-04-18T00:51:50.895Z,30.00
2023-04-18T00:52:50.880Z,30.00
2023-04-18T00:53:50.895Z,30.00
2023-04-18T00:54:50.919Z,30.01
2023-04-18T00:55:50.886Z,30.00
2023-04-18T00:56:50.884Z,30.02
2023-04-18T00:57:50.902Z,30.02
2023-04-18T00:58:50.915Z,30.02
2023-04-18T00:59:50.910Z,30.01
2023-04-18T01:00:50.912Z,30.00
2023-04-18T01:01:50.961Z,30.02
2023-04-18T01:02:51.045Z,30.02
2023-04-18T01:03:50.962Z,29.99
2023-04-18T01:04:50.938Z,30.03
2023-04-18T01:05:50.949Z,30.02
2023-04-18T01:06:50.983Z,30.02
2023-04-18T01:07:50.974Z,30.02
2023-04-18T01:08:50.984Z,30.01
2023-04-18T01:09:50.980Z,30.01
2023-04-18T01:10:51.006Z,30.01
2023-04-18T01:11:51.000Z,30.03
2023-04-18T01:12:51.004Z,30.02
2023-04-18T01:13:51.037Z,30.01
2023-04-18T01:14:51.046Z,29.99
2023-04-18T01:15:51.171Z,30.02
2023-04-18T01:16:51.038Z,30.03
2023-04-18T01:17:51.080Z,30.00
2023-04-18T01:18:51.045Z,30.02
2023-04-18T01:19:51.094Z,30.01
2023-04-18T01:20:51.078Z,30.01
2023-04-18T01:21:51.085Z,30.02
2023-04-18T01:22:51.090Z,30.00
2023-04-18T01:23:51.118Z,30.01
2023-04-18T01:24:51.115Z,30.00
2023-04-18T01:25:51.127Z,30.00
2023-04-18T01:26:51.144Z,30.01
2023-04-18T01:27:51.144Z,30.01
2023-04-18T01:28:51.146Z,30.02
2023-04-18T01:29:51.161Z,29.99
2023-04-18T01:30:51.189Z,30.01
2023-04-18T01:31:51.178Z,30.02
2023-04-18T01:32:51.264Z,30.00
2023-04-18T01:33:51.202Z,30.02
2023-04-18T01:34:51.202Z,30.02
2023-04-18T01:35:51.240Z,30.02
2023-04-18T01:36:51.226Z,30.01
2023-04-18T01:37:51.241Z,30.02
2023-04-18T01:38:51.262Z,30.01
2023-04-18T01:39:51.270Z,30.02
2023-04-18T01:40:51.275Z,30.01
2023-04-18T01:41:51.283Z,30.01
2023-04-18T01:42:51.284Z,30.01
2023-04-18T01:43:51.291Z,30.02
2023-04-18T01:44:51.295Z,30.03
2023-04-18T01:45:51.312Z,30.02
2023-04-18T01:46:51.374Z,30.01
2023-04-18T01:47:51.328Z,30.01
2023-04-18T01:48:51.316Z,30.00
2023-04-18T01:49:51.330Z,30.00
2023-04-18T01:50:51.357Z,30.01
2023-04-18T01:51:51.339Z,30.01
2023-04-18T01:52:51.347Z,30.01
2023-04-18T01:53:51.368Z,30.00
2023-04-18T01:54:51.378Z,30.02
2023-04-18T01:55:51.397Z,29.99
2023-04-18T01:56:51.392Z,30.01
2023-04-18T01:57:51.388Z,30.01
2023-04-18T01:58:51.401Z,30.02
2023-04-18T01:59:51.393Z,30.01
2023-04-18T02:00:51.416Z,29.99
2023-04-18T02:01:51.369Z,30.02
2023-04-18T02:02:51.504Z,30.00
2023-04-18T02:03:51.487Z,30.00
2023-04-18T02:04:51.377Z,30.00
2023-04-18T02:05:51.406Z,30.00
2023-04-18T02:06:51.380Z,30.00
2023-04-18T02:07:51.391Z,30.01
2023-04-18T02:08:51.416Z,29.99
2023-04-18T02:09:51.407Z,29.99
2023-04-18T02:10:51.434Z,30.01
2023-04-18T02:11:51.398Z,30.00
2023-04-18T02:12:51.439Z,30.00
2023-04-18T02:13:51.401Z,29.99
2023-04-18T02:14:51.490Z,30.02
2023-04-18T02:15:51.412Z,30.01
2023-04-18T02:16:51.532Z,30.01
2023-04-18T02:17:51.448Z,30.01
2023-04-18T02:18:51.416Z,30.01
2023-04-18T02:19:51.431Z,30.00
2023-04-18T02:20:51.432Z,30.00
2023-04-18T02:21:51.459Z,30.01
2023-04-18T02:22:51.439Z,30.01
2023-04-18T02:23:51.457Z,30.00
2023-04-18T02:24:51.447Z,30.01
2023-04-18T02:25:51.462Z,30.01
2023-04-18T02:26:51.458Z,29.98
2023-04-18T02:27:51.490Z,29.99
2023-04-18T02:28:51.475Z,30.01
2023-04-18T02:29:51.450Z,29.99
2023-04-18T02:30:51.458Z,30.00
2023-04-18T02:31:51.514Z,30.01
2023-04-18T02:32:51.562Z,30.01
2023-04-18T02:33:51.461Z,30.00
2023-04-18T02:34:51.450Z,29.99
2023-04-18T02:35:51.453Z,30.01
2023-04-18T02:36:51.463Z,30.02
2023-04-18T02:37:51.471Z,30.02
2023-04-18T02:38:51.459Z,30.00
2023-04-18T02:39:51.454Z,30.00
2023-04-18T02:40:51.499Z,30.02
2023-04-18T02:41:51.467Z,30.02
2023-04-18T02:42:51.463Z,30.01
2023-04-18T02:43:51.467Z,29.73
2023-04-18T02:44:51.476Z,29.20
2023-04-18T02:45:51.529Z,29.28
2023-04-18T02:46:51.484Z,28.91
2023-04-18T02:47:55.992Z,28.59
2023-04-18T02:48:51.454Z,28.45
2023-04-18T02:49:51.464Z,28.22
2023-04-18T02:50:51.453Z,28.08
2023-04-18T02:51:51.448Z,27.82
2023-04-18T02:52:51.468Z,27.63
2023-04-18T02:53:51.439Z,27.53
2023-04-18T02:54:51.449Z,27.49
2023-04-18T02:55:51.444Z,27.43
2023-04-18T02:56:51.457Z,27.37
2023-04-18T02:57:51.463Z,27.36
2023-04-18T02:58:51.460Z,27.28
2023-04-18T02:59:51.471Z,27.17
2023-04-18T03:00:51.473Z,27.15
2023-04-18T03:01:51.479Z,27.10
2023-04-18T03:02:51.532Z,26.97
2023-04-18T03:03:51.463Z,26.96
2023-04-18T03:04:51.493Z,26.92
2023-04-18T03:05:51.461Z,26.89
2023-04-18T03:06:51.478Z,26.81
2023-04-18T03:07:51.487Z,26.78
2023-04-18T03:08:51.460Z,26.73
2023-04-18T03:09:51.466Z,26.69
2023-04-18T03:10:51.466Z,26.68
2023-04-18T03:11:51.529Z,26.64
2023-04-18T03:12:51.539Z,26.65
2023-04-18T03:13:51.596Z,26.58
2023-04-18T03:14:51.683Z,26.50
2023-04-18T03:15:51.736Z,26.50
2023-04-18T03:16:53.865Z,26.50
2023-04-18T03:17:51.749Z,26.47
2023-04-18T03:18:51.737Z,26.40
2023-04-18T03:19:51.762Z,26.42
2023-04-18T03:20:51.751Z,26.42
2023-04-18T03:21:51.770Z,26.36
2023-04-18T03:22:51.760Z,26.34
2023-04-18T03:23:51.761Z,26.28
2023-04-18T03:24:51.761Z,26.27
2023-04-18T03:25:51.765Z,26.28
2023-04-18T03:26:51.783Z,26.31
2023-04-18T03:27:51.755Z,26.30
2023-04-18T03:28:51.779Z,26.23
2023-04-18T03:29:51.786Z,26.21
2023-04-18T03:30:51.907Z,26.23
2023-04-18T03:31:51.798Z,26.18
2023-04-18T03:32:51.861Z,26.20
2023-04-18T03:33:51.834Z,26.17
2023-04-18T03:34:51.817Z,26.16
2023-04-18T03:35:51.835Z,26.15
2023-04-18T03:36:51.866Z,26.12
2023-04-18T03:37:51.852Z,26.11
2023-04-18T03:38:51.853Z,26.07
2023-04-18T03:39:51.853Z,26.11
2023-04-18T03:40:51.849Z,26.07
2023-04-18T03:41:51.848Z,26.06
2023-04-18T03:42:51.852Z,26.04
2023-04-18T03:43:51.871Z,26.07
2023-04-18T03:44:51.861Z,26.08
2023-04-18T03:45:51.885Z,26.05
2023-04-18T03:46:51.881Z,26.06
2023-04-18T03:47:51.911Z,26.04
2023-04-18T03:48:51.891Z,26.03
2023-04-18T03:49:51.890Z,26.03
2023-04-18T03:50:51.898Z,26.00
2023-04-18T03:51:51.915Z,26.03
2023-04-18T03:52:51.916Z,26.03
2023-04-18T03:53:51.937Z,26.06
2023-04-18T03:54:51.964Z,26.01
2023-04-18T03:55:51.955Z,26.02
2023-04-18T03:56:51.976Z,26.03
2023-04-18T03:57:51.961Z,26.03
2023-04-18T03:58:51.985Z,26.07
2023-04-18T03:59:52.007Z,26.07
2023-04-18T04:00:51.988Z,26.02
2023-04-18T04:01:52.055Z,26.05
2023-04-18T04:02:52.173Z,26.09
2023-04-18T04:03:52.220Z,26.06
2023-04-18T04:04:52.180Z,26.08
2023-04-18T04:05:52.185Z,26.06
2023-04-18T04:06:52.236Z,26.05
2023-04-18T04:07:52.269Z,26.04
2023-04-18T04:08:52.293Z,26.03
2023-04-18T04:09:52.350Z,26.05
2023-04-18T04:10:52.408Z,26.02
2023-04-18T04:11:52.450Z,26.02
2023-04-18T04:12:52.491Z,26.08
2023-04-18T04:13:52.529Z,26.10
2023-04-18T04:14:52.581Z,26.08
2023-04-18T04:15:52.621Z,26.07
2023-04-18T04:16:52.894Z,26.06
2023-04-18T04:17:52.780Z,26.09
2023-04-18T04:18:52.783Z,26.12
2023-04-18T04:19:52.820Z,26.08
2023-04-18T04:20:52.875Z,26.13
2023-04-18T04:21:52.952Z,26.13
2023-04-18T04:22:53.043Z,26.12
2023-04-18T04:23:53.024Z,26.15
2023-04-18T04:24:53.094Z,26.13
2023-04-18T04:25:53.138Z,26.15
2023-04-18T04:26:53.197Z,26.13
2023-04-18T04:27:53.250Z,26.14
2023-04-18T04:28:53.293Z,26.14
2023-04-18T04:29:53.343Z,26.16
2023-04-18T04:30:53.403Z,26.15
2023-04-18T04:31:53.489Z,26.17
2023-04-18T04:32:53.585Z,26.16
2023-04-18T04:33:53.569Z,26.17
2023-04-18T04:34:53.624Z,26.20
2023-04-18T04:35:53.656Z,26.18
2023-04-18T04:36:53.723Z,26.17
2023-04-18T04:37:53.819Z,26.20
2023-04-18T04:38:53.832Z,26.19
2023-04-18T04:39:53.889Z,26.19
2023-04-18T04:40:53.950Z,26.20
2023-04-18T04:41:53.990Z,26.21
2023-04-18T04:42:54.097Z,26.19
2023-04-18T04:43:54.093Z,26.22
2023-04-18T04:44:54.157Z,26.18
2023-04-18T04:45:54.204Z,26.20
2023-04-18T04:46:54.142Z,26.22
2023-04-18T04:47:54.175Z,26.24
2023-04-18T04:48:54.167Z,26.23
2023-04-18T04:49:54.179Z,26.25
2023-04-18T04:50:54.195Z,26.26
2023-04-18T04:51:54.206Z,26.25
2023-04-18T04:52:54.207Z,26.26
2023-04-18T04:53:54.228Z,26.25
2023-04-18T04:54:54.289Z,26.25
2023-04-18T04:55:54.237Z,26.29
2023-04-18T04:56:54.251Z,26.29
2023-04-18T04:57:54.257Z,26.30
2023-04-18T04:58:54.280Z,26.33
2023-04-18T04:59:54.280Z,26.32
2023-04-18T05:00:54.357Z,26.32
2023-04-18T05:01:54.327Z,26.35
2023-04-18T05:02:54.472Z,26.33
2023-04-18T05:03:54.359Z,26.34
2023-04-18T05:04:54.330Z,26.35
2023-04-18T05:05:54.324Z,26.32
2023-04-18T05:06:54.348Z,26.32
2023-04-18T05:07:54.368Z,26.31
2023-04-18T05:08:54.360Z,26.31
2023-04-18T05:09:54.368Z,26.33
2023-04-18T05:10:54.375Z,26.32
2023-04-18T05:11:54.395Z,26.30
2023-04-18T05:12:54.411Z,26.32
2023-04-18T05:13:54.413Z,26.34
2023-04-18T05:14:54.423Z,26.34
2023-04-18T05:15:54.444Z,26.32
2023-04-18T05:16:54.468Z,26.33
2023-04-18T05:17:54.504Z,26.32
2023-04-18T05:18:54.459Z,26.32
2023-04-18T05:19:54.458Z,26.31
2023-04-18T05:20:54.457Z,26.28
2023-04-18T05:21:54.479Z,26.27
2023-04-18T05:22:54.469Z,26.25
2023-04-18T05:23:54.494Z,26.24
2023-04-18T05:24:54.497Z,26.23
2023-04-18T05:25:54.510Z,26.19
2023-04-18T05:26:54.526Z,26.21
2023-04-18T05:27:54.556Z,26.18
2023-04-18T05:28:54.524Z,26.15
2023-04-18T05:29:54.553Z,26.45
2023-04-18T05:30:54.567Z,26.51
2023-04-18T05:31:54.575Z,26.82
2023-04-18T05:32:54.612Z,27.11
2023-04-18T05:33:54.584Z,27.54
2023-04-18T05:34:54.602Z,27.70
2023-04-18T05:35:54.614Z,28.24
2023-04-18T05:36:54.605Z,28.38
2023-04-18T05:37:54.627Z,28.23
2023-04-18T05:38:54.663Z,28.03
2023-04-18T05:39:54.651Z,27.31
2023-04-18T05:40:54.636Z,27.48
2023-04-18T05:41:54.644Z,27.39
2023-04-18T05:42:54.662Z,27.44
2023-04-18T05:44:04.951Z,27.90
2023-04-18T05:44:55.679Z,28.10
2023-04-18T05:45:56.529Z,28.30
2023-04-18T05:46:54.702Z,28.42
2023-04-18T05:47:54.825Z,28.71
2023-04-18T05:48:54.720Z,29.17
2023-04-18T05:49:54.744Z,29.18
2023-04-18T05:50:54.732Z,29.71
2023-04-18T05:51:54.744Z,29.88
2023-04-18T05:52:54.751Z,29.62
2023-04-18T05:53:54.743Z,29.79
2023-04-18T05:54:54.742Z,29.90
2023-04-18T05:55:54.806Z,30.17
2023-04-18T05:56:54.773Z,30.17
2023-04-18T05:57:54.778Z,30.31
2023-04-18T05:58:54.754Z,30.11
2023-04-18T05:59:54.769Z,30.12
2023-04-18T06:00:54.764Z,30.18
2023-04-18T06:01:54.862Z,30.43
2023-04-18T06:02:54.874Z,30.33
2023-04-18T06:03:55.001Z,30.21
2023-04-18T06:04:54.924Z,30.35
2023-04-18T06:05:54.884Z,30.50
2023-04-18T06:06:54.785Z,30.66
2023-04-18T06:07:54.774Z,30.74
2023-04-18T06:08:54.785Z,30.69
2023-04-18T06:09:54.777Z,30.52
2023-04-18T06:10:54.763Z,30.55
2023-04-18T06:11:54.825Z,30.50
2023-04-18T06:12:54.770Z,30.82
2023-04-18T06:13:54.776Z,30.73
2023-04-18T06:14:54.760Z,30.65
2023-04-18T06:15:54.811Z,30.74
2023-04-18T06:16:54.770Z,30.73
2023-04-18T06:17:54.855Z,30.86
2023-04-18T06:18:54.773Z,30.80
2023-04-18T06:19:54.889Z,30.97
2023-04-18T06:20:54.766Z,30.94
2023-04-18T06:21:54.776Z,30.97
2023-04-18T06:22:54.776Z,31.00
2023-04-18T06:23:54.790Z,31.01
2023-04-18T06:24:54.757Z,30.93
2023-04-18T06:25:54.749Z,30.51
2023-04-18T06:26:54.765Z,29.60
2023-04-18T06:27:54.755Z,29.46
2023-04-18T06:28:54.764Z,29.29
2023-04-18T06:29:54.756Z,28.43
2023-04-18T06:30:54.734Z,28.47
2023-04-18T06:31:54.786Z,28.23
2023-04-18T06:32:54.764Z,28.61
2023-04-18T06:33:54.821Z,28.38
2023-04-18T06:34:54.739Z,28.07
2023-04-18T06:35:54.723Z,27.83
2023-04-18T06:36:54.736Z,27.96
2023-04-18T06:37:54.735Z,27.96
2023-04-18T06:38:54.732Z,28.02
2023-04-18T06:39:54.732Z,27.81
2023-04-18T06:40:54.756Z,28.11
2023-04-18T06:41:54.733Z,28.22
2023-04-18T06:42:54.735Z,28.30
2023-04-18T06:44:03.482Z,28.33
2023-04-18T06:44:55.740Z,28.16
2023-04-18T06:45:54.811Z,28.12
2023-04-18T06:46:54.746Z,28.02
2023-04-18T06:47:54.821Z,27.90
2023-04-18T06:48:54.771Z,27.46
2023-04-18T06:49:54.791Z,27.10
2023-04-18T06:50:54.790Z,27.23
2023-04-18T06:51:54.765Z,27.22
2023-04-18T06:52:54.762Z,26.93
2023-04-18T06:53:54.820Z,26.73
2023-04-18T06:54:54.780Z,26.64
2023-04-18T06:55:54.778Z,26.53
2023-04-18T06:56:54.780Z,26.43
2023-04-18T06:57:54.797Z,26.29
2023-04-18T06:58:54.826Z,26.40
2023-04-18T06:59:54.877Z,26.38
2023-04-18T07:00:54.952Z,26.24
2023-04-18T07:01:55.011Z,26.27
2023-04-18T07:02:55.211Z,26.29
2023-04-18T07:03:55.269Z,26.11
2023-04-18T07:04:55.166Z,26.15
2023-04-18T07:05:55.258Z,26.49
2023-04-18T07:06:55.295Z,26.31
2023-04-18T07:07:55.346Z,26.36
2023-04-18T07:08:55.442Z,26.37
2023-04-18T07:09:55.442Z,26.65
2023-04-18T07:10:55.496Z,26.55
2023-04-18T07:11:55.601Z,26.61
2023-04-18T07:12:55.674Z,26.77
2023-04-18T07:13:55.829Z,26.83
2023-04-18T07:14:55.836Z,26.92
2023-04-18T07:15:55.864Z,26.97
2023-04-18T07:16:55.974Z,27.02
2023-04-18T07:17:55.966Z,27.04
2023-04-18T07:18:55.972Z,27.03
2023-04-18T07:19:55.960Z,27.02
2023-04-18T07:20:55.994Z,27.07
2023-04-18T07:21:56.081Z,27.06
2023-04-18T07:22:55.975Z,27.06
2023-04-18T07:23:56.675Z,27.08
2023-04-18T07:24:56.060Z,27.11
2023-04-18T07:25:55.991Z,27.12
2023-04-18T07:26:55.987Z,27.10
2023-04-18T07:27:55.995Z,27.14
2023-04-18T07:28:56.002Z,27.08
2023-04-18T07:29:56.021Z,27.12
2023-04-18T07:30:56.008Z,27.11
2023-04-18T07:31:55.997Z,27.17
2023-04-18T07:32:56.037Z,27.22
2023-04-18T07:33:56.006Z,27.28
2023-04-18T07:34:56.006Z,27.23
2023-04-18T07:35:55.992Z,27.10
2023-04-18T07:36:56.025Z,27.28
2023-04-18T07:37:56.026Z,27.59
2023-04-18T07:38:56.160Z,27.71
2023-04-18T07:39:56.084Z,27.77
2023-04-18T07:40:56.060Z,27.72
2023-04-18T07:41:56.041Z,27.74
2023-04-18T07:42:56.041Z,27.78
2023-04-18T07:43:56.020Z,27.75
2023-04-18T07:44:55.989Z,27.71
2023-04-18T07:45:56.026Z,27.82
2023-04-18T07:46:55.990Z,27.95
2023-04-18T07:47:56.063Z,27.96
2023-04-18T07:48:55.976Z,27.98
2023-04-18T07:49:55.988Z,28.03
2023-04-18T07:50:55.972Z,28.11
2023-04-18T07:51:55.963Z,28.09
2023-04-18T07:52:55.988Z,28.02
2023-04-18T07:53:55.977Z,27.97
2023-04-18T07:54:55.937Z,27.94
2023-04-18T07:55:55.983Z,27.99
2023-04-18T07:56:55.928Z,27.97
2023-04-18T07:57:55.919Z,28.02
2023-04-18T07:58:55.923Z,27.99
2023-04-18T07:59:55.917Z,27.92
2023-04-18T08:00:55.976Z,27.99
2023-04-18T08:01:56.096Z,27.95
2023-04-18T08:02:56.285Z,27.86
2023-04-18T08:03:56.301Z,27.86
2023-04-18T08:04:56.501Z,27.87
2023-04-18T08:05:56.311Z,27.90
2023-04-18T08:06:56.368Z,27.88
2023-04-18T08:07:56.428Z,27.87
2023-04-18T08:08:56.534Z,27.87
2023-04-18T08:09:56.618Z,27.88
2023-04-18T08:10:56.634Z,27.56
2023-04-18T08:11:56.825Z,26.98
2023-04-18T08:12:56.731Z,26.93
2023-04-18T08:13:56.802Z,26.81
2023-04-18T08:14:56.874Z,26.69
2023-04-18T08:15:56.955Z,26.60
2023-04-18T08:16:56.962Z,26.46
2023-04-18T08:17:57.052Z,26.45
2023-04-18T08:18:57.126Z,26.42
2023-04-18T08:19:57.105Z,26.33
2023-04-18T08:20:57.069Z,26.29
2023-04-18T08:21:57.075Z,26.24
2023-04-18T08:23:07.514Z,26.14
2023-04-18T08:23:58.052Z,26.09
2023-04-18T08:25:04.445Z,26.07
2023-04-18T08:25:58.042Z,26.07
2023-04-18T08:26:57.028Z,25.96
2023-04-18T08:27:57.091Z,25.91
2023-04-18T08:28:57.028Z,25.87
2023-04-18T08:29:57.024Z,25.86
2023-04-18T08:30:57.041Z,25.84
2023-04-18T08:31:57.056Z,26.05
2023-04-18T08:32:57.044Z,26.14
2023-04-18T08:33:57.057Z,26.36
2023-04-18T08:34:57.034Z,26.47
2023-04-18T08:35:57.021Z,26.60
2023-04-18T08:36:57.045Z,26.72
2023-04-18T08:37:57.013Z,26.73
2023-04-18T08:38:57.037Z,26.75
2023-04-18T08:39:57.044Z,26.67
2023-04-18T08:40:57.038Z,26.68
2023-04-18T08:41:57.030Z,26.68
2023-04-18T08:42:57.041Z,26.67
2023-04-18T08:43:57.318Z,26.64
2023-04-18T08:44:57.022Z,26.69
2023-04-18T08:45:57.088Z,26.72
2023-04-18T08:46:57.045Z,26.76
2023-04-18T08:47:57.124Z,26.69
2023-04-18T08:48:57.160Z,26.72
2023-04-18T08:49:57.283Z,26.99
2023-04-18T08:50:57.277Z,27.08
2023-04-18T08:51:57.324Z,27.10
2023-04-18T08:52:57.381Z,27.13
2023-04-18T08:53:57.445Z,27.13
2023-04-18T08:54:57.451Z,27.17
2023-04-18T08:55:57.493Z,27.16
2023-04-18T08:56:57.505Z,27.14
2023-04-18T08:57:57.411Z,27.14
2023-04-18T08:58:57.431Z,27.15
2023-04-18T08:59:57.431Z,27.15
2023-04-18T09:00:57.453Z,27.17
2023-04-18T09:01:57.500Z,27.20
2023-04-18T09:02:57.759Z,27.21
2023-04-18T09:03:57.442Z,27.20
2023-04-18T09:04:57.410Z,27.22
2023-04-18T09:05:57.371Z,27.22
2023-04-18T09:06:57.374Z,27.24
2023-04-18T09:07:57.396Z,27.27
2023-04-18T09:08:57.392Z,27.24
2023-04-18T09:09:57.402Z,27.27
2023-04-18T09:10:57.398Z,27.26
2023-04-18T09:11:57.408Z,27.25
2023-04-18T09:12:57.525Z,27.24
2023-04-18T09:13:57.472Z,27.24
2023-04-18T09:14:57.490Z,27.23
2023-04-18T09:15:57.749Z,27.21
2023-04-18T09:16:57.533Z,27.20
2023-04-18T09:17:57.500Z,27.19
2023-04-18T09:18:57.466Z,27.18
2023-04-18T09:19:57.482Z,27.17
2023-04-18T09:20:57.471Z,27.18
2023-04-18T09:21:57.469Z,27.18
2023-04-18T09:22:57.463Z,27.16
2023-04-18T09:23:57.444Z,27.18
2023-04-18T09:24:57.440Z,27.16
2023-04-18T09:25:57.499Z,27.17
2023-04-18T09:26:57.561Z,27.17
2023-04-18T09:27:57.631Z,27.17
2023-04-18T09:28:57.626Z,27.19
2023-04-18T09:29:58.156Z,27.20
2023-04-18T09:30:57.801Z,27.17
2023-04-18T09:31:57.823Z,27.20
2023-04-18T09:32:57.881Z,27.19
2023-04-18T09:33:57.867Z,27.20
2023-04-18T09:34:58.020Z,27.18
2023-04-18T09:35:57.981Z,27.20
2023-04-18T09:36:58.052Z,27.21
2023-04-18T09:37:58.148Z,27.21
2023-04-18T09:38:58.113Z,27.21
2023-04-18T09:39:58.184Z,27.23
2023-04-18T09:40:58.155Z,27.19
2023-04-18T09:41:58.183Z,27.26
2023-04-18T09:42:58.163Z,27.32
2023-04-18T09:43:58.157Z,27.25
2023-04-18T09:44:58.141Z,27.16
2023-04-18T09:45:58.158Z,26.66
2023-04-18T09:46:58.148Z,26.29
2023-04-18T09:47:58.238Z,26.48
2023-04-18T09:48:58.115Z,26.34
2023-04-18T09:49:58.114Z,25.83
2023-04-18T09:50:58.141Z,25.66
2023-04-18T09:51:58.137Z,25.47
2023-04-18T09:52:58.106Z,25.67
2023-04-18T09:53:58.135Z,25.50
2023-04-18T09:54:58.094Z,25.60
2023-04-18T09:55:58.113Z,25.93
2023-04-18T09:56:58.107Z,25.48
2023-04-18T09:57:58.146Z,25.27
2023-04-18T09:58:58.220Z,25.31
2023-04-18T09:59:58.289Z,25.07
2023-04-18T10:00:58.382Z,24.99
2023-04-18T10:01:58.561Z,24.67
2023-04-18T10:02:58.593Z,24.59
2023-04-18T10:03:58.676Z,24.96
2023-04-18T10:04:58.701Z,24.79
2023-04-18T10:05:58.638Z,24.76
2023-04-18T10:06:58.707Z,24.64
2023-04-18T10:07:58.760Z,24.58
2023-04-18T10:08:58.824Z,24.72
2023-04-18T10:09:58.859Z,24.68
2023-04-18T10:10:59.025Z,24.62
2023-04-18T10:11:59.006Z,24.66
2023-04-18T10:12:59.050Z,24.47
2023-04-18T10:13:59.178Z,24.83
2023-04-18T10:14:59.149Z,24.97
2023-04-18T10:15:59.207Z,24.57
2023-04-18T10:16:59.224Z,24.50
2023-04-18T10:18:05.345Z,24.55
2023-04-18T10:19:00.294Z,24.74
2023-04-18T10:19:59.377Z,24.92
2023-04-18T10:20:59.309Z,24.68
2023-04-18T10:21:59.311Z,24.63
2023-04-18T10:22:59.294Z,24.55
2023-04-18T10:23:59.296Z,24.54
2023-04-18T10:24:59.322Z,24.51
2023-04-18T10:25:59.329Z,24.57
2023-04-18T10:26:59.349Z,24.81
2023-04-18T10:27:59.431Z,24.92
2023-04-18T10:28:59.539Z,24.89
2023-04-18T10:29:59.573Z,24.90
2023-04-18T10:30:59.706Z,25.01
2023-04-18T10:31:59.837Z,24.91
2023-04-18T10:32:59.872Z,24.78
2023-04-18T10:34:05.310Z,24.52
2023-04-18T10:35:00.864Z,24.63
2023-04-18T10:35:59.862Z,24.75
2023-04-18T10:36:59.853Z,24.80
2023-04-18T10:37:59.847Z,24.20
2023-04-18T10:38:59.857Z,23.91
2023-04-18T10:39:59.849Z,24.02
2023-04-18T10:40:59.858Z,24.07
2023-04-18T10:41:59.873Z,24.21
2023-04-18T10:42:59.874Z,24.08
2023-04-18T10:43:59.877Z,24.03
2023-04-18T10:44:59.868Z,24.05
2023-04-18T10:45:59.852Z,24.06
2023-04-18T10:46:59.909Z,24.01
2023-04-18T10:47:59.891Z,23.99
2023-04-18T10:48:59.940Z,23.98
2023-04-18T10:50:00.040Z,23.98
2023-04-18T10:51:00.176Z,23.90
2023-04-18T10:52:00.169Z,23.87
2023-04-18T10:53:00.249Z,23.76
2023-04-18T10:54:00.325Z,23.67
2023-04-18T10:55:00.375Z,23.62
2023-04-18T10:56:00.455Z,23.54
2023-04-18T10:57:00.500Z,23.55
2023-04-18T10:58:00.579Z,23.60
2023-04-18T10:59:00.668Z,23.87
2023-04-18T11:00:00.713Z,24.47
2023-04-18T11:01:00.846Z,24.55
2023-04-18T11:02:00.875Z,24.63
2023-04-18T11:03:00.997Z,24.71
2023-04-18T11:04:11.005Z,24.65
2023-04-18T11:05:01.977Z,24.50
2023-04-18T11:06:00.973Z,24.50
2023-04-18T11:07:00.970Z,24.73
2023-04-18T11:08:01.056Z,24.65
2023-04-18T11:09:00.977Z,24.49
2023-04-18T11:10:00.984Z,24.84
2023-04-18T11:11:00.974Z,25.01
2023-04-18T11:12:00.982Z,24.79
2023-04-18T11:13:00.965Z,24.35
2023-04-18T11:14:01.005Z,24.44
2023-04-18T11:15:01.078Z,24.73
2023-04-18T11:16:01.174Z,24.71
2023-04-18T11:17:01.190Z,24.31
2023-04-18T11:18:01.231Z,23.99
2023-04-18T11:19:01.246Z,24.04
2023-04-18T11:20:01.258Z,24.08
2023-04-18T11:21:01.321Z,23.74
2023-04-18T11:22:01.319Z,23.47
2023-04-18T11:23:01.320Z,23.76
2023-04-18T11:24:01.443Z,24.13
2023-04-18T11:25:01.304Z,24.00
2023-04-18T11:26:01.342Z,23.69
2023-04-18T11:27:01.297Z,23.31
2023-04-18T11:28:01.312Z,23.20
2023-04-18T11:29:01.316Z,23.85
2023-04-18T11:30:01.380Z,24.25
2023-04-18T11:31:01.357Z,24.35
2023-04-18T11:32:01.404Z,24.42
2023-04-18T11:33:01.383Z,24.43
2023-04-18T11:34:01.387Z,24.52
2023-04-18T11:35:01.443Z,24.44
2023-04-18T11:36:01.433Z,24.42
2023-04-18T11:37:01.508Z,29.91
2023-04-18T11:38:01.508Z,26.04
2023-04-18T11:39:01.530Z,25.30
2023-04-18T11:40:01.624Z,25.25
2023-04-18T11:41:01.560Z,25.30
2023-04-18T11:42:01.561Z,25.15
2023-04-18T11:43:01.555Z,25.15
2023-04-18T11:44:01.569Z,25.10
2023-04-18T11:45:01.598Z,25.04
2023-04-18T11:46:01.831Z,25.16
2023-04-18T11:47:01.666Z,25.04
2023-04-18T11:48:01.656Z,25.05
2023-04-18T11:49:01.609Z,25.15
2023-04-18T11:50:01.600Z,25.14
2023-04-18T11:51:01.601Z,25.13
2023-04-18T11:52:01.589Z,25.06
2023-04-18T11:53:01.574Z,25.11
2023-04-18T11:54:01.550Z,25.11
2023-04-18T11:55:01.530Z,25.28
2023-04-18T11:56:01.542Z,25.25
2023-04-18T11:57:01.510Z,25.52
2023-04-18T11:58:01.478Z,25.38
2023-04-18T11:59:01.524Z,25.26
2023-04-18T12:00:01.458Z,25.26
2023-04-18T12:01:01.476Z,25.23
2023-04-18T12:02:12.609Z,25.23
2023-04-18T12:03:02.644Z,25.17
2023-04-18T12:04:01.587Z,25.16
2023-04-18T12:05:01.717Z,25.11
2023-04-18T12:06:01.599Z,25.13
2023-04-18T12:07:01.406Z,25.06
2023-04-18T12:08:01.400Z,25.06
2023-04-18T12:09:01.363Z,25.03
2023-04-18T12:10:01.352Z,25.00
2023-04-18T12:11:01.368Z,24.98
2023-04-18T12:12:01.357Z,24.95
2023-04-18T12:13:01.372Z,24.89
2023-04-18T12:14:03.488Z,24.92
2023-04-18T12:15:01.659Z,24.88
2023-04-18T12:16:01.747Z,24.89
2023-04-18T12:17:01.769Z,24.88
2023-04-18T12:18:01.955Z,24.88
2023-04-18T12:19:01.902Z,24.79
2023-04-18T12:20:01.975Z,24.78
2023-04-18T12:21:02.068Z,24.75
2023-04-18T12:22:02.112Z,24.74
2023-04-18T12:23:02.125Z,24.72
2023-04-18T12:24:02.177Z,24.78
2023-04-18T12:25:02.288Z,24.72
2023-04-18T12:26:02.266Z,24.70
2023-04-18T12:27:02.382Z,24.71
2023-04-18T12:28:02.422Z,24.72
2023-04-18T12:29:02.461Z,24.69
2023-04-18T12:30:02.519Z,24.76
2023-04-18T12:31:02.596Z,24.80
2023-04-18T12:32:02.651Z,24.79
2023-04-18T12:33:02.691Z,24.74
2023-04-18T12:34:02.735Z,24.78
2023-04-18T12:35:02.776Z,24.81
2023-04-18T12:36:02.855Z,24.81
2023-04-18T12:37:02.880Z,24.77
2023-04-18T12:38:02.958Z,24.74
2023-04-18T12:39:02.995Z,24.79
2023-04-18T12:40:03.067Z,24.76
2023-04-18T12:41:03.097Z,24.78
2023-04-18T12:42:03.156Z,24.78
2023-04-18T12:43:03.994Z,24.76
2023-04-18T12:44:03.259Z,24.74
2023-04-18T12:45:03.340Z,24.71
2023-04-18T12:46:03.316Z,24.73
2023-04-18T12:47:03.501Z,24.74
2023-04-18T12:48:03.428Z,24.72
2023-04-18T12:49:03.469Z,24.71
2023-04-18T12:50:03.516Z,24.71
2023-04-18T12:51:03.551Z,24.74
2023-04-18T12:52:03.593Z,24.74
2023-04-18T12:53:03.602Z,24.75